Weather at Theodore Francis Green State Airport

Public forecast

Using degrees Fahrenheit for public forecast. Weather courtesy of forecast.io.

Current aviation weather report (METAR) for Theodore Francis Green State Airport

Retrieved 2020/09/23 06:51 UTC (38 minutes ago):

KPVD 230651Z AUTO 31008KT 10SM CLR 13/02 A2977 RMK AO2 SLP081 T01330022

Aviation forecast (TAF) for Theodore Francis Green State Airport

Retrieved 2020/09/23 06:30 UTC (59 minutes ago):

TAF KPVD 230528Z 2306/2406 31011G19KT P6SM SKC